createdAt,value
2022-12-17T00:01:08.831Z,-1.44
2022-12-17T00:03:57.498Z,-1.52
2022-12-17T00:06:49.072Z,-1.44
2022-12-17T00:09:37.797Z,-1.40
2022-12-17T00:12:26.244Z,-1.36
2022-12-17T00:15:14.947Z,-1.36
2022-12-17T00:18:03.510Z,-1.44
2022-12-17T00:20:51.561Z,-1.34
2022-12-17T00:23:41.811Z,-1.32
2022-12-17T00:26:30.326Z,-1.53
2022-12-17T00:29:20.265Z,-1.70
2022-12-17T00:32:11.319Z,-1.53
2022-12-17T00:35:01.267Z,-1.60
2022-12-17T00:37:51.199Z,-1.60
2022-12-17T00:40:44.131Z,-1.70
2022-12-17T00:43:33.731Z,-1.72
2022-12-17T00:46:24.625Z,-1.68
2022-12-17T00:49:16.646Z,-1.72
2022-12-17T00:52:05.458Z,-1.60
2022-12-17T00:54:54.210Z,-1.58
2022-12-17T00:57:44.237Z,-1.54
2022-12-17T01:00:32.989Z,-1.43
2022-12-17T01:03:27.260Z,-1.41
2022-12-17T01:06:18.067Z,-1.50
2022-12-17T01:09:07.513Z,-1.54
2022-12-17T01:11:56.621Z,-1.36
2022-12-17T01:14:46.198Z,-1.62
2022-12-17T01:17:34.727Z,-1.72
2022-12-17T01:20:24.069Z,-1.75
2022-12-17T01:23:13.564Z,-1.73
2022-12-17T01:26:04.402Z,-1.76
2022-12-17T01:28:52.911Z,-1.80
2022-12-17T01:31:41.639Z,-1.70
2022-12-17T01:34:30.278Z,-1.78
2022-12-17T01:37:19.186Z,-1.68
2022-12-17T01:40:08.358Z,-1.88
2022-12-17T01:43:02.906Z,-2.00
2022-12-17T01:46:03.983Z,-2.04
2022-12-17T01:49:02.096Z,-1.90
2022-12-17T01:51:51.878Z,-2.00
2022-12-17T01:54:41.613Z,-2.03
2022-12-17T01:57:31.135Z,-1.99
2022-12-17T02:00:25.776Z,-2.07
2022-12-17T02:03:14.797Z,-2.16
2022-12-17T02:06:33.499Z,-2.12
2022-12-17T02:09:30.662Z,-2.22
2022-12-17T02:12:21.997Z,-2.14
2022-12-17T02:15:38.487Z,-2.10
2022-12-17T02:18:40.052Z,-2.04
2022-12-17T02:21:31.976Z,-2.16
2022-12-17T02:24:29.229Z,-2.04
2022-12-17T02:27:23.708Z,-2.00
2022-12-17T02:30:21.222Z,-2.19
2022-12-17T02:33:14.010Z,-2.32
2022-12-17T02:36:11.443Z,-2.48
2022-12-17T02:39:00.025Z,-2.38
2022-12-17T02:41:51.616Z,-2.32
2022-12-17T02:44:44.261Z,-2.48
2022-12-17T02:47:31.345Z,-2.52
2022-12-17T02:50:22.613Z,-2.53
2022-12-17T02:53:12.770Z,-2.38
2022-12-17T02:56:01.053Z,-2.42
2022-12-17T02:58:51.313Z,-2.43
2022-12-17T03:01:40.539Z,-2.52
2022-12-17T03:04:33.066Z,-2.46
2022-12-17T03:07:21.652Z,-2.42
2022-12-17T03:10:05.937Z,-2.26
2022-12-17T03:12:54.593Z,-2.31
2022-12-17T03:15:43.913Z,-2.36
2022-12-17T03:18:33.932Z,-2.39
2022-12-17T03:21:23.448Z,-2.53
2022-12-17T03:24:13.096Z,-2.58
2022-12-17T03:27:01.800Z,-2.50
2022-12-17T03:29:50.417Z,-2.40
2022-12-17T03:32:38.966Z,-2.41
2022-12-17T03:35:30.342Z,-2.32
2022-12-17T03:38:19.065Z,-2.36
2022-12-17T03:41:10.774Z,-2.26
2022-12-17T03:43:59.711Z,-2.39
2022-12-17T03:46:49.484Z,-2.46
2022-12-17T03:49:37.828Z,-2.34
2022-12-17T03:52:30.422Z,-2.34
2022-12-17T03:55:19.130Z,-2.34
2022-12-17T03:58:08.179Z,-2.26
2022-12-17T04:00:59.245Z,-2.32
2022-12-17T04:03:47.783Z,-2.30
2022-12-17T04:06:39.326Z,-2.33
2022-12-17T04:09:27.948Z,-2.28
2022-12-17T04:12:16.681Z,-2.32
2022-12-17T04:15:06.674Z,-2.26
2022-12-17T04:17:45.606Z,-2.30
2022-12-17T04:20:34.769Z,-2.10
2022-12-17T04:23:23.220Z,-2.24
2022-12-17T04:26:11.970Z,-2.14
2022-12-17T04:29:00.530Z,-2.22
2022-12-17T04:31:53.589Z,-2.22
2022-12-17T04:34:41.950Z,-2.24
2022-12-17T04:37:30.630Z,-2.10
2022-12-17T04:40:21.917Z,-2.23
2022-12-17T04:43:10.572Z,-2.16
2022-12-17T04:45:59.479Z,-2.25
2022-12-17T04:48:51.319Z,-2.22
2022-12-17T04:51:39.692Z,-2.29
2022-12-17T04:54:27.828Z,-2.38
2022-12-17T04:57:16.889Z,-2.39
2022-12-17T05:00:05.320Z,-2.44
2022-12-17T05:02:54.030Z,-2.55
2022-12-17T05:05:46.123Z,-2.43
2022-12-17T05:08:41.083Z,-2.48
2022-12-17T05:11:25.190Z,-2.30
2022-12-17T05:14:14.099Z,-2.26
2022-12-17T05:17:02.877Z,-2.30
2022-12-17T05:19:51.432Z,-2.25
2022-12-17T05:22:40.054Z,-2.24
2022-12-17T05:25:28.907Z,-2.08
2022-12-17T05:28:17.749Z,-2.02
2022-12-17T05:31:13.923Z,-2.20
2022-12-17T05:34:04.223Z,-1.96
2022-12-17T05:36:52.765Z,-2.04
2022-12-17T05:39:41.711Z,-2.04
2022-12-17T05:42:30.658Z,-2.11
2022-12-17T05:45:19.402Z,-2.23
2022-12-17T05:48:07.624Z,-2.29
2022-12-17T05:50:42.612Z,-2.16
2022-12-17T05:53:34.452Z,-2.26
2022-12-17T05:56:23.312Z,-2.35
2022-12-17T05:59:11.864Z,-2.32
2022-12-17T06:02:01.792Z,-2.34
2022-12-17T06:04:50.447Z,-2.59
2022-12-17T06:07:40.447Z,-2.66
2022-12-17T06:10:29.068Z,-2.64
2022-12-17T06:13:10.994Z,-2.66
2022-12-17T06:16:00.225Z,-2.57
2022-12-17T06:18:48.586Z,-2.44
2022-12-17T06:21:37.213Z,-2.49
2022-12-17T06:24:26.200Z,-2.37
2022-12-17T06:27:16.140Z,-2.51
2022-12-17T06:30:04.600Z,-2.60
2022-12-17T06:32:54.712Z,-2.70
2022-12-17T06:35:43.163Z,-2.49
2022-12-17T06:38:31.942Z,-2.40
2022-12-17T06:41:20.166Z,-2.42
2022-12-17T06:44:08.890Z,-2.40
2022-12-17T06:46:57.766Z,-2.54
2022-12-17T06:49:46.348Z,-2.54
2022-12-17T06:52:36.762Z,-2.40
2022-12-17T06:55:26.167Z,-2.13
2022-12-17T07:01:32.877Z,-2.46
2022-12-17T07:04:23.442Z,-2.36
2022-12-17T07:07:12.935Z,-2.36
2022-12-17T07:10:01.802Z,-2.32
2022-12-17T07:12:49.973Z,-2.22
2022-12-17T07:15:38.770Z,-2.13
2022-12-17T07:18:28.656Z,-2.22
2022-12-17T07:21:17.123Z,-2.14
2022-12-17T07:24:05.474Z,-2.34
2022-12-17T07:26:55.831Z,-2.20
2022-12-17T07:29:44.699Z,-2.18
2022-12-17T07:32:33.281Z,-2.22
2022-12-17T07:35:21.570Z,-2.20
2022-12-17T07:38:11.522Z,-2.12
2022-12-17T07:41:00.414Z,-1.90
2022-12-17T07:43:53.013Z,-2.20
2022-12-17T07:46:39.191Z,-2.32
2022-12-17T07:49:27.434Z,-2.38
2022-12-17T07:52:17.316Z,-2.44
2022-12-17T07:55:06.926Z,-2.32
2022-12-17T07:57:55.822Z,-2.28
2022-12-17T08:00:49.133Z,-2.12
2022-12-17T08:03:35.156Z,-2.06
2022-12-17T08:06:26.911Z,-2.12
2022-12-17T08:09:15.388Z,-2.00
2022-12-17T08:12:04.135Z,-2.38
2022-12-17T08:14:52.369Z,-2.50
2022-12-17T08:17:41.507Z,-2.56
2022-12-17T08:20:30.280Z,-2.66
2022-12-17T08:23:24.268Z,-2.60
2022-12-17T08:26:12.873Z,-2.32
2022-12-17T08:29:03.318Z,-2.24
2022-12-17T08:31:51.980Z,-2.44
2022-12-17T08:34:40.463Z,-2.28
2022-12-17T08:37:30.413Z,-2.16
2022-12-17T08:40:19.102Z,-2.20
2022-12-17T08:43:07.328Z,-2.16
2022-12-17T08:45:57.171Z,-2.20
2022-12-17T08:48:45.669Z,-2.25
2022-12-17T08:51:34.164Z,-2.10
2022-12-17T08:54:24.917Z,-1.96
2022-12-17T08:57:30.498Z,-1.90
2022-12-17T09:00:05.374Z,-1.73
2022-12-17T09:02:53.958Z,-1.74
2022-12-17T09:05:43.634Z,-2.00
2022-12-17T09:08:32.187Z,-2.24
2022-12-17T09:11:20.926Z,-2.43
2022-12-17T09:14:10.139Z,-2.47
2022-12-17T09:16:58.731Z,-2.54
2022-12-17T09:19:50.326Z,-2.50
2022-12-17T09:22:38.828Z,-2.64
2022-12-17T09:25:28.012Z,-2.26
2022-12-17T09:28:21.136Z,-2.36
2022-12-17T09:31:09.772Z,-2.20
2022-12-17T09:33:58.883Z,-2.01
2022-12-17T09:36:51.310Z,-2.33
2022-12-17T09:39:39.235Z,-2.36
2022-12-17T09:42:48.294Z,-2.09
2022-12-17T09:45:39.024Z,-2.14
2022-12-17T09:48:41.000Z,-2.04
2022-12-17T09:51:42.692Z,-1.66
2022-12-17T09:54:34.635Z,-1.77
2022-12-17T09:57:26.127Z,-1.47
2022-12-17T10:00:15.952Z,-1.62
2022-12-17T10:03:06.383Z,-1.78
2022-12-17T10:05:57.268Z,-1.68
2022-12-17T10:08:47.063Z,-1.50
2022-12-17T10:11:44.845Z,-1.84
2022-12-17T10:14:42.887Z,-2.20
2022-12-17T10:17:43.574Z,-2.22
2022-12-17T10:20:45.306Z,-2.14
2022-12-17T10:23:48.762Z,-2.34
2022-12-17T10:26:39.314Z,-2.00
2022-12-17T10:29:38.521Z,-1.68
2022-12-17T10:32:32.964Z,-1.80
2022-12-17T10:35:39.674Z,-2.18
2022-12-17T10:38:34.060Z,-2.11
2022-12-17T10:41:24.054Z,-1.90
2022-12-17T10:44:12.743Z,-1.78
2022-12-17T10:47:02.563Z,-1.44
2022-12-17T10:49:52.037Z,-1.66
2022-12-17T10:52:48.917Z,-1.64
2022-12-17T10:55:45.876Z,-1.58
2022-12-17T10:58:46.755Z,-1.34
2022-12-17T11:01:41.408Z,-1.21
2022-12-17T11:04:49.932Z,-1.44
2022-12-17T11:07:44.461Z,-1.81
2022-12-17T11:10:37.764Z,-1.92
2022-12-17T11:13:29.392Z,-1.69
2022-12-17T11:16:20.170Z,-1.66
2022-12-17T11:19:13.156Z,-1.72
2022-12-17T11:22:05.310Z,-1.35
2022-12-17T11:25:01.195Z,-1.60
2022-12-17T11:27:53.902Z,-1.36
2022-12-17T11:30:46.617Z,-1.38
2022-12-17T11:33:42.237Z,-1.44
2022-12-17T11:36:51.935Z,-1.50
2022-12-17T11:39:47.084Z,-1.54
2022-12-17T11:42:41.873Z,-1.26
2022-12-17T11:45:39.654Z,-1.34
2022-12-17T11:48:35.011Z,-1.34
2022-12-17T11:51:32.495Z,-1.26
2022-12-17T11:54:27.891Z,-1.22
2022-12-17T11:57:22.419Z,-1.10
2022-12-17T12:00:41.284Z,-1.10
2022-12-17T12:03:51.287Z,-1.20
2022-12-17T12:06:58.101Z,-1.50
2022-12-17T12:09:57.460Z,-1.51
2022-12-17T12:12:54.691Z,-1.50
2022-12-17T12:16:03.984Z,-1.68
2022-12-17T12:19:13.693Z,-1.82
2022-12-17T12:22:11.230Z,-1.74
2022-12-17T12:25:17.164Z,-1.68
2022-12-17T12:28:20.633Z,-2.26
2022-12-17T12:31:12.491Z,-1.98
2022-12-17T12:34:11.525Z,-2.00
2022-12-17T12:37:02.766Z,-2.02
2022-12-17T12:39:58.098Z,-2.02
2022-12-17T12:42:52.325Z,-2.21
2022-12-17T12:46:06.993Z,-2.04
2022-12-17T12:49:18.578Z,-1.88
2022-12-17T12:52:10.058Z,-1.92
2022-12-17T12:55:07.950Z,-1.91
2022-12-17T12:58:02.220Z,-2.42
2022-12-17T13:00:56.376Z,-2.52
2022-12-17T13:03:51.911Z,-2.40
2022-12-17T13:06:45.433Z,-2.15
2022-12-17T13:09:32.267Z,-2.26
2022-12-17T13:12:04.826Z,-2.16
2022-12-17T13:14:53.545Z,-2.08
2022-12-17T13:17:47.603Z,-2.14
2022-12-17T13:20:30.227Z,-1.98
2022-12-17T13:23:23.746Z,-2.14
2022-12-17T13:26:18.797Z,-2.04
2022-12-17T13:29:02.948Z,-2.08
2022-12-17T13:31:40.522Z,-2.33
2022-12-17T13:34:27.445Z,-2.28
2022-12-17T13:37:05.706Z,-2.18
2022-12-17T13:39:49.891Z,-2.28
2022-12-17T13:42:35.961Z,-2.18
2022-12-17T13:45:12.480Z,-2.13
2022-12-17T13:47:45.622Z,-2.38
2022-12-17T13:50:33.903Z,-2.40
2022-12-17T13:52:57.948Z,-2.29
2022-12-17T13:55:31.330Z,-2.47
2022-12-17T13:58:02.191Z,-2.15
2022-12-17T14:00:34.063Z,-2.40
2022-12-17T14:03:12.515Z,-2.44
2022-12-17T14:05:47.254Z,-2.40
2022-12-17T14:08:21.074Z,-2.47
2022-12-17T14:11:14.496Z,-2.56
2022-12-17T14:13:48.593Z,-2.55
2022-12-17T14:16:22.034Z,-2.54
2022-12-17T14:18:57.818Z,-2.62
2022-12-17T14:21:30.584Z,-2.63
2022-12-17T14:24:02.653Z,-2.58
2022-12-17T14:26:33.345Z,-2.78
2022-12-17T14:29:08.034Z,-2.62
2022-12-17T14:31:42.079Z,-2.50
2022-12-17T14:34:13.117Z,-2.53
2022-12-17T14:36:47.081Z,-2.56
2022-12-17T14:39:32.340Z,-2.44
2022-12-17T14:42:30.341Z,-2.76
2022-12-17T14:45:08.561Z,-2.72
2022-12-17T14:47:41.176Z,-2.74
2022-12-17T14:50:15.113Z,-2.56
2022-12-17T14:52:48.931Z,-2.58
2022-12-17T14:55:40.714Z,-2.73
2022-12-17T14:58:17.629Z,-2.86
2022-12-17T15:00:59.402Z,-2.74
2022-12-17T15:03:36.229Z,-2.66
2022-12-17T15:06:10.566Z,-2.72
2022-12-17T15:08:47.530Z,-2.54
2022-12-17T15:11:22.060Z,-2.60
2022-12-17T15:13:56.343Z,-2.38
2022-12-17T15:16:27.531Z,-2.32
2022-12-17T15:19:01.298Z,-2.58
2022-12-17T15:21:34.360Z,-2.66
2022-12-17T15:24:10.886Z,-2.70
2022-12-17T15:26:42.364Z,-2.52
2022-12-17T15:29:15.123Z,-2.58
2022-12-17T15:31:48.838Z,-2.67
2022-12-17T15:34:20.557Z,-2.56
2022-12-17T15:36:51.238Z,-2.49
2022-12-17T15:39:23.580Z,-2.39
2022-12-17T15:42:12.321Z,-2.52
2022-12-17T15:44:43.401Z,-2.60
2022-12-17T15:47:16.588Z,-2.48
2022-12-17T15:49:48.309Z,-2.44
2022-12-17T15:52:19.600Z,-2.35
2022-12-17T15:54:52.898Z,-2.40
2022-12-17T15:57:25.094Z,-2.18
2022-12-17T15:59:58.605Z,-2.52
2022-12-17T16:02:29.838Z,-2.52
2022-12-17T16:05:00.439Z,-2.62
2022-12-17T16:07:30.992Z,-2.38
2022-12-17T16:10:05.106Z,-2.62
2022-12-17T16:12:33.992Z,-2.54
2022-12-17T16:15:05.379Z,-2.56
2022-12-17T16:17:36.723Z,-2.55
2022-12-17T16:20:11.042Z,-2.52
2022-12-17T16:22:41.941Z,-2.60
2022-12-17T16:25:12.664Z,-2.21
2022-12-17T16:27:43.785Z,-2.30
2022-12-17T16:30:15.176Z,-2.26
2022-12-17T16:32:47.178Z,-2.52
2022-12-17T16:35:20.028Z,-2.38
2022-12-17T16:37:54.395Z,-2.56
2022-12-17T16:40:26.388Z,-2.62
2022-12-17T16:42:58.085Z,-2.86
2022-12-17T16:45:29.000Z,-2.64
2022-12-17T16:47:59.502Z,-2.48
2022-12-17T16:50:30.826Z,-2.50
2022-12-17T16:53:04.760Z,-2.58
2022-12-17T16:55:37.579Z,-2.53
2022-12-17T16:58:08.572Z,-2.90
2022-12-17T17:00:39.431Z,-2.61
2022-12-17T17:03:12.229Z,-2.72
2022-12-17T17:05:42.822Z,-2.60
2022-12-17T17:08:14.763Z,-2.70
2022-12-17T17:10:47.603Z,-2.72
2022-12-17T17:13:18.852Z,-2.60
2022-12-17T17:15:49.360Z,-2.65
2022-12-17T17:18:24.774Z,-2.46
2022-12-17T17:20:55.477Z,-2.52
2022-12-17T17:23:26.071Z,-2.90
2022-12-17T17:25:57.975Z,-2.76
2022-12-17T17:28:29.136Z,-2.48
2022-12-17T17:31:04.333Z,-2.54
2022-12-17T17:33:38.252Z,-2.58
2022-12-17T17:36:12.295Z,-2.52
2022-12-17T17:38:43.454Z,-2.53
2022-12-17T17:41:16.095Z,-2.53
2022-12-17T17:43:47.121Z,-2.50
2022-12-17T17:46:20.699Z,-2.74
2022-12-17T17:48:57.088Z,-2.69
2022-12-17T17:52:07.154Z,-2.86
2022-12-17T17:54:12.607Z,-2.84
2022-12-17T17:56:48.840Z,-2.64
2022-12-17T17:59:20.971Z,-2.74
2022-12-17T18:01:56.613Z,-2.82
2022-12-17T18:04:27.239Z,-2.44
2022-12-17T18:09:33.215Z,-2.70
2022-12-17T18:12:05.688Z,-2.62
2022-12-17T18:14:42.010Z,-2.52
2022-12-17T18:17:12.542Z,-2.50
2022-12-17T18:19:43.642Z,-2.49
2022-12-17T18:22:16.733Z,-2.64
2022-12-17T18:24:49.267Z,-2.78
2022-12-17T18:27:19.632Z,-2.72
2022-12-17T18:29:52.902Z,-2.66
2022-12-17T18:32:26.368Z,-2.56
2022-12-17T18:34:57.153Z,-2.64
2022-12-17T18:37:29.594Z,-2.85
2022-12-17T18:40:01.541Z,-2.89
2022-12-17T18:42:41.536Z,-2.93
2022-12-17T18:45:16.054Z,-2.86
2022-12-17T18:47:48.950Z,-2.53
2022-12-17T18:50:19.670Z,-2.63
2022-12-17T18:52:52.735Z,-2.70
2022-12-17T18:55:23.167Z,-2.75
2022-12-17T18:57:53.807Z,-2.96
2022-12-17T19:00:24.800Z,-2.95
2022-12-17T19:02:55.712Z,-2.78
2022-12-17T19:05:28.620Z,-2.76
2022-12-17T19:07:59.500Z,-2.56
2022-12-17T19:10:32.185Z,-2.82
2022-12-17T19:13:04.635Z,-2.77
2022-12-17T19:15:37.163Z,-2.94
2022-12-17T19:18:08.752Z,-3.32
2022-12-17T19:20:39.383Z,-3.56
2022-12-17T19:23:11.648Z,-3.46
2022-12-17T19:25:47.349Z,-3.18
2022-12-17T19:28:21.267Z,-3.08
2022-12-17T19:30:57.747Z,-3.25
2022-12-17T19:33:29.837Z,-3.12
2022-12-17T19:36:06.402Z,-3.14
2022-12-17T19:38:38.701Z,-3.16
2022-12-17T19:41:12.346Z,-3.46
2022-12-17T19:43:46.492Z,-3.30
2022-12-17T19:46:20.617Z,-3.24
2022-12-17T19:48:53.021Z,-3.44
2022-12-17T19:51:26.114Z,-3.38
2022-12-17T19:53:58.870Z,-3.39
2022-12-17T19:56:31.985Z,-3.34
2022-12-17T19:59:07.861Z,-3.30
2022-12-17T20:01:48.747Z,-3.34
2022-12-17T20:04:19.337Z,-3.42
2022-12-17T20:06:49.975Z,-3.39
2022-12-17T20:09:21.635Z,-3.43
2022-12-17T20:11:54.573Z,-3.40
2022-12-17T20:14:29.534Z,-3.25
2022-12-17T20:17:03.263Z,-3.46
2022-12-17T20:19:34.988Z,-3.52
2022-12-17T20:22:07.026Z,-3.45
2022-12-17T20:24:39.904Z,-3.52
2022-12-17T20:27:13.116Z,-3.42
2022-12-17T20:29:47.238Z,-3.76
2022-12-17T20:32:20.331Z,-3.92
2022-12-17T20:34:51.552Z,-3.78
2022-12-17T20:37:21.981Z,-3.60
2022-12-17T20:39:52.555Z,-3.58
2022-12-17T20:42:23.116Z,-3.50
2022-12-17T20:44:53.831Z,-3.83
2022-12-17T20:47:26.894Z,-3.80
2022-12-17T20:49:57.672Z,-3.86
2022-12-17T20:52:29.397Z,-3.76
2022-12-17T20:55:00.222Z,-3.58
2022-12-17T20:57:30.702Z,-3.82
2022-12-17T21:00:01.239Z,-3.64
2022-12-17T21:02:32.669Z,-3.60
2022-12-17T21:05:04.458Z,-3.58
2022-12-17T21:07:34.988Z,-3.70
2022-12-17T21:10:11.362Z,-3.64
2022-12-17T21:13:05.079Z,-3.66
2022-12-17T21:15:35.796Z,-3.53
2022-12-17T21:18:10.357Z,-3.28
2022-12-17T21:20:46.050Z,-3.60
2022-12-17T21:23:18.967Z,-3.58
2022-12-17T21:25:59.713Z,-3.73
2022-12-17T21:28:33.819Z,-3.78
2022-12-17T21:31:06.831Z,-4.16
2022-12-17T21:33:41.753Z,-3.92
2022-12-17T21:36:21.047Z,-3.94
2022-12-17T21:38:53.695Z,-3.86
2022-12-17T21:41:31.649Z,-3.94
2022-12-17T21:44:05.485Z,-3.94
2022-12-17T21:46:37.218Z,-4.04
2022-12-17T21:49:07.933Z,-4.18
2022-12-17T21:51:41.636Z,-3.96
2022-12-17T21:54:19.232Z,-3.86
2022-12-17T21:56:48.071Z,-4.05
2022-12-17T21:59:20.209Z,-4.05
2022-12-17T22:01:53.187Z,-4.26
2022-12-17T22:04:27.763Z,-4.04
2022-12-17T22:07:00.902Z,-4.13
2022-12-17T22:09:33.100Z,-4.14
2022-12-17T22:12:22.467Z,-3.74
2022-12-17T22:14:53.194Z,-3.85
2022-12-17T22:17:27.212Z,-3.83
2022-12-17T22:19:57.829Z,-3.90
2022-12-17T22:22:28.432Z,-3.96
2022-12-17T22:25:04.495Z,-4.04
2022-12-17T22:27:34.481Z,-4.07
2022-12-17T22:30:26.029Z,-3.87
2022-12-17T22:33:09.475Z,-3.56
2022-12-17T22:38:29.883Z,-3.66
2022-12-17T22:42:03.902Z,-3.90
2022-12-17T22:44:31.455Z,-4.10
2022-12-17T22:44:43.673Z,-3.88
2022-12-17T22:46:06.363Z,-4.34
2022-12-17T22:48:40.296Z,-4.46
2022-12-17T22:51:15.449Z,-4.34
2022-12-17T22:53:43.868Z,-4.58
2022-12-17T22:56:26.800Z,-4.44
2022-12-17T22:58:48.825Z,-4.40
2022-12-17T23:01:22.926Z,-4.14
2022-12-17T23:03:58.335Z,-4.37
2022-12-17T23:06:30.358Z,-4.30
2022-12-17T23:09:01.424Z,-4.24
2022-12-17T23:11:32.050Z,-4.38
2022-12-17T23:14:09.817Z,-4.50
2022-12-17T23:16:43.896Z,-4.58
2022-12-17T23:19:14.556Z,-4.93
2022-12-17T23:21:45.222Z,-4.88
2022-12-17T23:24:17.503Z,-4.73
2022-12-17T23:26:48.093Z,-4.94
2022-12-17T23:29:19.780Z,-4.96
2022-12-17T23:31:51.143Z,-4.98
2022-12-17T23:34:21.939Z,-4.72
2022-12-17T23:36:53.941Z,-4.62
2022-12-17T23:39:24.622Z,-4.46
2022-12-17T23:41:57.255Z,-4.36
2022-12-17T23:44:27.714Z,-4.49
2022-12-17T23:46:58.348Z,-4.36
2022-12-17T23:49:30.242Z,-4.60
2022-12-17T23:52:02.587Z,-4.90
2022-12-17T23:54:33.213Z,-5.26
2022-12-17T23:57:03.754Z,-5.08
2022-12-17T23:59:34.518Z,-5.12
